createdAt,value
2019-03-06T00:01:13.828Z,98.60
2019-03-06T00:03:44.145Z,98.60
2019-03-06T00:06:16.936Z,98.70
2019-03-06T00:08:46.481Z,98.70
2019-03-06T00:11:17.348Z,98.80
2019-03-06T00:13:47.709Z,99.00
2019-03-06T00:16:18.005Z,99.00
2019-03-06T00:18:48.329Z,99.10
2019-03-06T00:21:18.617Z,99.00
2019-03-06T00:23:49.174Z,99.10
2019-03-06T00:26:19.453Z,99.10
2019-03-06T00:28:49.781Z,99.10
2019-03-06T00:31:20.116Z,99.20
2019-03-06T00:33:50.639Z,99.20
2019-03-06T00:36:22.554Z,99.20
2019-03-06T00:38:52.941Z,99.20
2019-03-06T00:41:37.910Z,99.30
2019-03-06T00:44:08.304Z,99.40
2019-03-06T00:46:38.700Z,99.60
2019-03-06T00:49:09.005Z,99.60
2019-03-06T00:51:39.615Z,99.70
2019-03-06T00:54:10.155Z,99.70
2019-03-06T00:56:40.940Z,99.80
2019-03-06T00:59:11.257Z,99.90
2019-03-06T01:01:41.695Z,99.90
2019-03-06T01:04:12.018Z,99.90
2019-03-06T01:06:42.297Z,99.90
2019-03-06T01:09:12.617Z,99.90
2019-03-06T01:11:42.893Z,99.90
2019-03-06T01:14:13.223Z,99.90
2019-03-06T01:16:43.870Z,99.90
2019-03-06T01:19:14.202Z,99.90
2019-03-06T01:21:44.480Z,99.90
2019-03-06T01:24:14.890Z,99.90
2019-03-06T01:26:45.242Z,99.90
2019-03-06T01:29:15.565Z,99.90
2019-03-06T01:31:45.858Z,99.90
2019-03-06T01:34:38.478Z,99.90
2019-03-06T01:37:27.825Z,99.90
2019-03-06T01:40:20.734Z,99.90
2019-03-06T01:42:58.913Z,99.90
2019-03-06T01:45:29.295Z,99.90
2019-03-06T01:47:59.586Z,99.90
2019-03-06T01:50:30.069Z,99.90
2019-03-06T01:53:00.361Z,99.90
2019-03-06T01:55:30.703Z,99.90
2019-03-06T01:58:00.982Z,99.90
2019-03-06T02:00:31.461Z,99.90
2019-03-06T02:03:01.883Z,99.90
2019-03-06T02:05:32.154Z,99.90
2019-03-06T02:08:02.505Z,99.90
2019-03-06T02:10:33.610Z,99.90
2019-03-06T02:13:04.601Z,99.90
2019-03-06T02:15:34.981Z,99.90
2019-03-06T02:18:05.498Z,99.90
2019-03-06T02:20:35.938Z,99.90
2019-03-06T02:23:06.291Z,99.90
2019-03-06T02:25:36.638Z,99.90
2019-03-06T02:28:06.625Z,99.90
2019-03-06T02:30:37.111Z,99.90
2019-03-06T02:33:07.478Z,99.90
2019-03-06T02:35:38.301Z,99.90
2019-03-06T02:38:08.625Z,99.90
2019-03-06T02:40:39.042Z,99.90
2019-03-06T02:43:09.365Z,99.90
2019-03-06T02:45:40.059Z,99.90
2019-03-06T02:48:10.711Z,99.90
2019-03-06T02:50:41.520Z,99.90
2019-03-06T02:53:11.907Z,99.90
2019-03-06T02:55:42.343Z,99.90
2019-03-06T02:58:31.685Z,99.90
2019-03-06T03:01:19.732Z,99.90
2019-03-06T03:04:18.163Z,99.90
2019-03-06T03:06:55.077Z,99.90
2019-03-06T03:09:25.357Z,99.90
2019-03-06T03:11:55.927Z,99.90
2019-03-06T03:14:26.231Z,99.90
2019-03-06T03:16:56.641Z,99.90
2019-03-06T03:19:28.302Z,99.90
2019-03-06T03:21:58.593Z,99.90
2019-03-06T03:24:28.884Z,99.90
2019-03-06T03:26:59.441Z,99.90
2019-03-06T03:29:29.950Z,99.90
2019-03-06T03:32:00.402Z,99.90
2019-03-06T03:34:30.674Z,99.90
2019-03-06T03:37:01.131Z,99.90
2019-03-06T03:39:31.491Z,99.90
2019-03-06T03:42:01.892Z,99.90
2019-03-06T03:44:32.181Z,99.90
2019-03-06T03:47:02.904Z,99.90
2019-03-06T03:49:33.235Z,99.90
2019-03-06T03:52:03.690Z,99.90
2019-03-06T03:54:34.039Z,99.90
2019-03-06T03:57:04.353Z,99.90
2019-03-06T03:59:34.703Z,99.90
2019-03-06T04:02:05.010Z,99.90
2019-03-06T04:04:35.308Z,99.90
2019-03-06T04:07:05.676Z,99.90
2019-03-06T04:09:35.975Z,99.90
2019-03-06T04:12:05.859Z,99.90
2019-03-06T04:14:36.223Z,99.90
2019-03-06T04:17:06.664Z,99.90
2019-03-06T04:19:36.953Z,99.90
2019-03-06T04:22:06.865Z,99.90
2019-03-06T04:24:37.212Z,99.90
2019-03-06T04:27:07.539Z,99.90
2019-03-06T04:29:37.893Z,99.90
2019-03-06T04:32:08.193Z,99.90
2019-03-06T04:34:39.257Z,99.90
2019-03-06T04:37:09.620Z,99.90
2019-03-06T04:39:40.551Z,99.90
2019-03-06T04:42:10.969Z,99.90
2019-03-06T04:44:41.296Z,99.90
2019-03-06T04:47:11.706Z,99.90
2019-03-06T04:49:42.044Z,99.90
2019-03-06T04:52:12.429Z,99.90
2019-03-06T04:54:42.779Z,99.90
2019-03-06T04:57:13.301Z,99.90
2019-03-06T04:59:43.688Z,99.90
2019-03-06T05:02:14.032Z,99.90
2019-03-06T05:04:44.345Z,99.90
2019-03-06T05:07:14.694Z,99.90
2019-03-06T05:09:45.051Z,99.90
2019-03-06T05:12:15.362Z,99.90
2019-03-06T05:14:45.685Z,99.90
2019-03-06T05:17:35.417Z,99.90
2019-03-06T05:20:06.091Z,99.90
2019-03-06T05:22:36.417Z,99.90
2019-03-06T05:25:06.355Z,99.90
2019-03-06T05:27:36.814Z,99.90
2019-03-06T05:30:07.513Z,99.90
2019-03-06T05:32:38.554Z,99.90
2019-03-06T05:35:28.104Z,99.90
2019-03-06T05:38:08.107Z,99.90
2019-03-06T05:40:38.525Z,99.90
2019-03-06T05:43:08.912Z,99.90
2019-03-06T05:45:39.310Z,99.90
2019-03-06T05:48:09.742Z,99.90
2019-03-06T05:50:40.093Z,99.90
2019-03-06T05:53:10.422Z,99.90
2019-03-06T05:55:41.073Z,99.90
2019-03-06T05:58:11.642Z,99.90
2019-03-06T06:00:41.937Z,99.90
2019-03-06T06:03:12.374Z,99.90
2019-03-06T06:05:42.692Z,99.90
2019-03-06T06:08:13.033Z,99.90
2019-03-06T06:10:43.345Z,99.90
2019-03-06T06:13:13.777Z,99.90
2019-03-06T06:15:44.070Z,99.90
2019-03-06T06:18:14.397Z,99.90
2019-03-06T06:20:45.174Z,99.90
2019-03-06T06:23:33.378Z,99.90
2019-03-06T06:26:03.696Z,99.90
2019-03-06T06:28:34.012Z,99.90
2019-03-06T06:31:04.388Z,99.90
2019-03-06T06:33:34.743Z,99.90
2019-03-06T06:36:05.033Z,99.90
2019-03-06T06:38:37.359Z,99.90
2019-03-06T06:41:07.419Z,99.90
2019-03-06T06:43:37.770Z,99.90
2019-03-06T06:46:08.083Z,99.90
2019-03-06T06:48:38.588Z,99.90
2019-03-06T06:51:31.365Z,99.90
2019-03-06T06:54:16.733Z,99.90
2019-03-06T06:57:06.420Z,99.90
2019-03-06T06:59:46.051Z,99.90
2019-03-06T07:03:19.771Z,99.90
2019-03-06T07:06:13.991Z,99.90
2019-03-06T07:09:09.345Z,99.90
2019-03-06T07:11:49.748Z,99.90
2019-03-06T07:14:38.047Z,99.90
2019-03-06T07:17:30.495Z,99.90
2019-03-06T07:20:22.846Z,99.90
2019-03-06T07:23:27.429Z,99.90
2019-03-06T07:26:13.213Z,99.90
2019-03-06T07:28:48.989Z,99.90
2019-03-06T07:31:29.583Z,99.90
2019-03-06T07:34:28.104Z,99.90
2019-03-06T07:37:28.103Z,99.90
2019-03-06T07:40:06.693Z,99.90
2019-03-06T07:42:54.743Z,99.90
2019-03-06T07:45:47.512Z,99.90
2019-03-06T07:48:35.548Z,99.90
2019-03-06T07:51:19.631Z,99.90
2019-03-06T07:54:16.054Z,99.90
2019-03-06T07:56:49.211Z,99.90
2019-03-06T07:59:19.501Z,99.90
2019-03-06T08:02:05.594Z,99.90
2019-03-06T08:04:35.885Z,99.90
2019-03-06T08:07:13.841Z,99.90
2019-03-06T08:09:44.179Z,99.90
2019-03-06T08:12:36.478Z,99.90
2019-03-06T08:15:23.188Z,99.90
2019-03-06T08:18:15.581Z,99.90
2019-03-06T08:21:07.944Z,99.90
2019-03-06T08:23:48.364Z,99.90
2019-03-06T08:26:18.675Z,99.90
2019-03-06T08:28:48.989Z,99.90
2019-03-06T08:31:27.033Z,99.90
2019-03-06T08:33:57.313Z,99.90
2019-03-06T08:36:27.646Z,99.90
2019-03-06T08:38:57.997Z,99.90
2019-03-06T08:41:28.391Z,99.90
2019-03-06T08:43:58.677Z,99.90
2019-03-06T08:46:48.160Z,99.90
2019-03-06T08:49:37.498Z,99.90
2019-03-06T08:52:45.020Z,99.90
2019-03-06T08:55:24.446Z,99.90
2019-03-06T08:58:16.703Z,99.90
2019-03-06T09:01:05.505Z,99.90
2019-03-06T09:03:53.833Z,99.90
2019-03-06T09:06:44.292Z,99.90
2019-03-06T09:09:36.745Z,99.90
2019-03-06T09:12:28.969Z,99.90
2019-03-06T09:15:27.425Z,99.90
2019-03-06T09:18:19.828Z,99.90
2019-03-06T09:21:09.167Z,99.90
2019-03-06T09:23:57.171Z,99.90
2019-03-06T09:26:46.560Z,99.90
2019-03-06T09:29:32.159Z,99.90
2019-03-06T09:32:25.636Z,99.90
2019-03-06T09:35:10.089Z,99.90
2019-03-06T09:37:58.494Z,99.90
2019-03-06T09:40:46.241Z,99.90
2019-03-06T09:43:45.159Z,99.90
2019-03-06T09:46:24.362Z,99.90
2019-03-06T09:49:14.001Z,99.90
2019-03-06T09:51:59.539Z,99.90
2019-03-06T09:54:45.891Z,99.90
2019-03-06T09:57:28.918Z,99.90
2019-03-06T10:00:13.165Z,99.90
2019-03-06T10:03:17.836Z,99.90
2019-03-06T10:06:13.213Z,99.90
2019-03-06T10:08:50.291Z,99.90
2019-03-06T10:11:38.561Z,99.90
2019-03-06T10:14:29.069Z,99.90
2019-03-06T10:17:21.421Z,99.90
2019-03-06T10:19:58.010Z,99.90
2019-03-06T10:22:28.430Z,99.90
2019-03-06T10:24:58.770Z,99.90
2019-03-06T10:27:29.188Z,99.90
2019-03-06T10:29:59.487Z,99.90
2019-03-06T10:32:29.944Z,99.90
2019-03-06T10:35:00.335Z,99.90
2019-03-06T10:37:30.767Z,99.90
2019-03-06T10:40:02.193Z,99.90
2019-03-06T10:42:32.558Z,99.90
2019-03-06T10:45:02.973Z,99.90
2019-03-06T10:47:33.294Z,99.20
2019-03-06T10:50:03.696Z,98.90
2019-03-06T10:52:34.336Z,98.90
2019-03-06T10:55:06.279Z,98.70
2019-03-06T10:57:37.760Z,98.40
2019-03-06T11:00:22.901Z,97.90
2019-03-06T11:02:53.665Z,97.20
2019-03-06T11:05:28.797Z,96.80
2019-03-06T11:07:59.614Z,96.70
2019-03-06T11:10:32.062Z,96.70
2019-03-06T11:13:03.775Z,95.70
2019-03-06T11:15:34.237Z,95.30
2019-03-06T11:18:04.927Z,94.90
2019-03-06T11:20:35.582Z,94.80
2019-03-06T11:23:07.778Z,93.90
2019-03-06T11:25:38.894Z,93.60
2019-03-06T11:28:10.887Z,93.00
2019-03-06T11:30:50.368Z,93.40
2019-03-06T11:33:21.881Z,93.20
2019-03-06T11:35:53.612Z,93.20
2019-03-06T11:38:24.565Z,93.10
2019-03-06T11:40:56.872Z,92.90
2019-03-06T11:43:27.178Z,92.70
2019-03-06T11:45:58.758Z,92.30
2019-03-06T11:48:29.357Z,92.00
2019-03-06T11:51:01.012Z,92.00
2019-03-06T11:53:32.924Z,92.50
2019-03-06T11:56:03.750Z,92.00
2019-03-06T11:58:34.085Z,91.50
2019-03-06T12:01:09.389Z,91.50
2019-03-06T12:03:39.765Z,91.00
2019-03-06T12:06:10.133Z,91.70
2019-03-06T12:08:45.676Z,91.10
2019-03-06T12:11:13.010Z,91.00
2019-03-06T12:13:43.482Z,91.10
2019-03-06T12:16:16.713Z,90.90
2019-03-06T12:18:47.334Z,91.00
2019-03-06T12:21:18.305Z,90.70
2019-03-06T12:23:49.213Z,90.20
2019-03-06T12:26:19.573Z,90.10
2019-03-06T12:28:50.057Z,90.10
2019-03-06T12:31:21.366Z,89.60
2019-03-06T12:33:51.763Z,88.60
2019-03-06T12:36:22.403Z,89.60
2019-03-06T12:38:52.745Z,88.70
2019-03-06T12:41:23.162Z,87.40
2019-03-06T12:43:53.477Z,87.50
2019-03-06T12:46:25.626Z,85.90
2019-03-06T12:49:01.138Z,86.80
2019-03-06T12:51:33.253Z,87.20
2019-03-06T12:54:03.607Z,86.40
2019-03-06T12:56:34.033Z,86.60
2019-03-06T12:59:05.038Z,86.90
2019-03-06T13:01:35.739Z,86.00
2019-03-06T13:04:06.213Z,86.00
2019-03-06T13:06:36.688Z,86.30
2019-03-06T13:09:15.560Z,86.30
2019-03-06T13:11:46.111Z,86.50
2019-03-06T13:14:16.734Z,85.40
2019-03-06T13:16:47.738Z,86.50
2019-03-06T13:19:18.047Z,84.90
2019-03-06T13:21:48.396Z,85.60
2019-03-06T13:24:18.797Z,85.40
2019-03-06T13:26:49.255Z,85.30
2019-03-06T13:29:19.908Z,85.40
2019-03-06T13:31:50.243Z,83.60
2019-03-06T13:34:39.565Z,82.90
2019-03-06T13:37:09.869Z,82.40
2019-03-06T13:39:40.379Z,82.10
2019-03-06T13:42:10.782Z,81.60
2019-03-06T13:44:41.798Z,82.00
2019-03-06T13:47:12.142Z,81.00
2019-03-06T13:49:43.866Z,81.70
2019-03-06T13:52:15.373Z,80.60
2019-03-06T13:54:45.740Z,79.50
2019-03-06T13:57:16.083Z,77.30
2019-03-06T13:59:46.461Z,77.10
2019-03-06T14:02:22.394Z,75.20
2019-03-06T14:04:53.528Z,74.80
2019-03-06T14:07:23.771Z,74.50
2019-03-06T14:09:54.191Z,74.50
2019-03-06T14:12:24.725Z,74.00
2019-03-06T14:14:55.130Z,73.60
2019-03-06T14:17:25.693Z,73.20
2019-03-06T14:19:56.035Z,73.40
2019-03-06T14:22:26.454Z,73.90
2019-03-06T14:24:56.817Z,73.90
2019-03-06T14:27:27.353Z,74.00
2019-03-06T14:29:57.701Z,72.80
2019-03-06T14:32:28.238Z,72.70
2019-03-06T14:34:58.693Z,71.90
2019-03-06T14:37:30.198Z,72.10
2019-03-06T14:40:09.091Z,71.80
2019-03-06T14:42:33.802Z,72.30
2019-03-06T14:45:04.413Z,71.00
2019-03-06T14:47:34.738Z,70.60
2019-03-06T14:50:05.649Z,71.50
2019-03-06T14:52:36.136Z,72.30
2019-03-06T14:55:06.785Z,71.10
2019-03-06T14:57:37.442Z,71.60
2019-03-06T15:00:08.970Z,71.70
2019-03-06T15:02:39.828Z,71.40
2019-03-06T15:05:10.314Z,71.70
2019-03-06T15:07:41.314Z,70.90
2019-03-06T15:10:13.309Z,70.80
2019-03-06T15:12:43.645Z,70.20
2019-03-06T15:15:14.730Z,70.90
2019-03-06T15:17:45.407Z,70.80
2019-03-06T15:20:17.721Z,70.50
2019-03-06T15:22:49.153Z,70.80
2019-03-06T15:25:20.793Z,70.00
2019-03-06T15:27:51.217Z,69.20
2019-03-06T15:30:21.734Z,69.20
2019-03-06T15:32:52.220Z,69.80
2019-03-06T15:35:23.089Z,71.00
2019-03-06T15:37:53.409Z,70.20
2019-03-06T15:40:26.369Z,69.90
2019-03-06T15:42:56.890Z,69.40
2019-03-06T15:45:29.360Z,69.60
2019-03-06T15:48:00.123Z,68.70
2019-03-06T15:50:30.696Z,69.00
2019-03-06T15:53:01.202Z,68.90
2019-03-06T15:55:31.997Z,68.50
2019-03-06T15:58:03.253Z,69.00
2019-03-06T16:00:45.707Z,68.80
2019-03-06T16:03:18.500Z,68.60
2019-03-06T16:05:55.746Z,68.70
2019-03-06T16:08:51.180Z,68.70
2019-03-06T16:11:22.693Z,68.00
2019-03-06T16:13:55.390Z,68.60
2019-03-06T16:16:30.083Z,68.50
2019-03-06T16:19:02.149Z,68.60
2019-03-06T16:21:35.619Z,68.50
2019-03-06T16:24:06.557Z,68.70
2019-03-06T16:26:38.988Z,68.20
2019-03-06T16:29:12.816Z,68.10
2019-03-06T16:31:47.172Z,68.30
2019-03-06T16:34:18.058Z,68.00
2019-03-06T16:36:48.882Z,67.80
2019-03-06T16:39:20.883Z,68.50
2019-03-06T16:41:51.516Z,69.00
2019-03-06T16:44:21.985Z,70.00
2019-03-06T16:46:52.360Z,70.30
2019-03-06T16:49:22.689Z,70.80
2019-03-06T16:51:54.668Z,71.10
2019-03-06T16:54:26.193Z,72.10
2019-03-06T16:56:56.789Z,72.10
2019-03-06T16:59:27.276Z,72.90
2019-03-06T17:01:57.616Z,73.10
2019-03-06T17:04:29.655Z,73.70
2019-03-06T17:06:59.993Z,75.60
2019-03-06T17:09:30.425Z,75.40
2019-03-06T17:12:02.821Z,76.20
2019-03-06T17:14:33.237Z,77.00
2019-03-06T17:17:03.675Z,77.50
2019-03-06T17:19:34.186Z,78.00
2019-03-06T17:22:04.606Z,78.00
2019-03-06T17:24:35.120Z,78.30
2019-03-06T17:27:05.496Z,78.60
2019-03-06T17:29:35.884Z,78.80
2019-03-06T17:32:06.365Z,78.60
2019-03-06T17:34:36.803Z,78.70
2019-03-06T17:37:06.682Z,78.80
2019-03-06T17:39:37.186Z,78.90
2019-03-06T17:42:07.596Z,78.70
2019-03-06T17:44:38.192Z,79.10
2019-03-06T17:47:08.509Z,79.10
2019-03-06T17:49:39.205Z,79.20
2019-03-06T17:52:09.537Z,79.30
2019-03-06T17:54:40.162Z,79.50
2019-03-06T17:57:10.945Z,79.30
2019-03-06T17:59:43.255Z,79.10
2019-03-06T18:02:13.425Z,79.20
2019-03-06T18:04:43.790Z,79.30
2019-03-06T18:07:14.114Z,79.40
2019-03-06T18:09:44.605Z,79.60
2019-03-06T18:12:16.151Z,79.50
2019-03-06T18:14:46.667Z,79.40
2019-03-06T18:17:18.289Z,79.60
2019-03-06T18:19:48.781Z,79.30
2019-03-06T18:22:19.192Z,79.20
2019-03-06T18:24:49.687Z,79.40
2019-03-06T18:27:26.260Z,79.30
2019-03-06T18:29:57.180Z,79.90
2019-03-06T18:32:28.820Z,80.00
2019-03-06T18:35:01.515Z,80.50
2019-03-06T18:37:31.798Z,80.00
2019-03-06T18:40:02.114Z,79.90
2019-03-06T18:42:32.673Z,79.60
2019-03-06T18:45:03.077Z,79.70
2019-03-06T18:47:34.692Z,79.10
2019-03-06T18:50:06.113Z,79.20
2019-03-06T18:52:36.429Z,78.80
2019-03-06T18:55:06.933Z,78.80
2019-03-06T18:57:40.434Z,78.40
2019-03-06T19:00:13.325Z,78.30
2019-03-06T19:02:43.812Z,78.00
2019-03-06T19:05:14.987Z,78.30
2019-03-06T19:07:45.300Z,77.70
2019-03-06T19:10:17.437Z,77.60
2019-03-06T19:12:48.089Z,78.10
2019-03-06T19:15:19.605Z,78.60
2019-03-06T19:17:50.044Z,78.80
2019-03-06T19:20:20.836Z,78.90
2019-03-06T19:22:52.369Z,79.20
2019-03-06T19:25:23.086Z,79.00
2019-03-06T19:27:53.865Z,79.70
2019-03-06T19:30:24.405Z,79.90
2019-03-06T19:32:55.048Z,80.90
2019-03-06T19:35:28.082Z,80.30
2019-03-06T19:37:58.684Z,80.60
2019-03-06T19:40:34.795Z,80.50
2019-03-06T19:43:07.847Z,80.40
2019-03-06T19:45:42.248Z,80.80
2019-03-06T19:48:12.554Z,81.40
2019-03-06T19:50:44.834Z,81.90
2019-03-06T19:53:15.233Z,82.30
2019-03-06T19:55:45.569Z,82.60
2019-03-06T19:58:17.118Z,83.20
2019-03-06T20:00:47.417Z,83.70
2019-03-06T20:03:19.621Z,84.20
2019-03-06T20:05:50.066Z,84.70
2019-03-06T20:08:21.144Z,85.00
2019-03-06T20:10:51.654Z,86.20
2019-03-06T20:13:23.238Z,85.10
2019-03-06T20:15:54.530Z,86.20
2019-03-06T20:18:26.810Z,86.40
2019-03-06T20:20:58.096Z,86.80
2019-03-06T20:23:28.654Z,87.20
2019-03-06T20:25:58.954Z,87.90
2019-03-06T20:28:30.060Z,88.20
2019-03-06T20:31:00.401Z,88.70
2019-03-06T20:33:30.815Z,89.30
2019-03-06T20:36:01.177Z,89.90
2019-03-06T20:38:31.566Z,90.10
2019-03-06T20:41:02.063Z,90.40
2019-03-06T20:43:33.116Z,90.60
2019-03-06T20:46:05.565Z,90.60
2019-03-06T20:48:35.589Z,91.10
2019-03-06T20:51:06.045Z,91.30
2019-03-06T20:53:36.426Z,91.70
2019-03-06T20:56:06.721Z,92.10
2019-03-06T20:58:37.036Z,92.80
2019-03-06T21:01:07.833Z,92.70
2019-03-06T21:03:38.321Z,93.00
2019-03-06T21:06:08.698Z,93.30
2019-03-06T21:08:40.907Z,93.50
2019-03-06T21:11:11.218Z,93.80
2019-03-06T21:13:41.629Z,93.80
2019-03-06T21:16:12.033Z,94.20
2019-03-06T21:18:42.756Z,94.40
2019-03-06T21:21:15.044Z,94.70
2019-03-06T21:23:45.336Z,94.90
2019-03-06T21:26:15.701Z,95.00
2019-03-06T21:28:46.076Z,95.10
2019-03-06T21:31:16.414Z,95.20
2019-03-06T21:33:46.719Z,95.40
2019-03-06T21:36:17.013Z,95.50
2019-03-06T21:38:47.319Z,95.60
2019-03-06T21:41:17.623Z,95.70
2019-03-06T21:43:47.922Z,95.90
2019-03-06T21:46:18.431Z,96.00
2019-03-06T21:48:48.760Z,96.00
2019-03-06T21:51:19.074Z,96.10
2019-03-06T21:53:49.504Z,96.20
2019-03-06T21:56:19.797Z,96.30
2019-03-06T21:58:50.161Z,96.30
2019-03-06T22:01:20.473Z,96.30
2019-03-06T22:03:50.854Z,96.50
2019-03-06T22:06:21.218Z,96.40
2019-03-06T22:08:51.509Z,96.40
2019-03-06T22:11:21.845Z,96.30
2019-03-06T22:13:52.532Z,96.30
2019-03-06T22:16:23.026Z,96.30
2019-03-06T22:18:53.336Z,96.40
2019-03-06T22:21:24.568Z,96.70
2019-03-06T22:23:54.863Z,96.40
2019-03-06T22:26:25.459Z,96.40
2019-03-06T22:28:55.796Z,96.50
2019-03-06T22:31:26.097Z,96.50
2019-03-06T22:33:56.422Z,96.50
2019-03-06T22:36:26.741Z,96.40
2019-03-06T22:38:57.197Z,96.30
2019-03-06T22:41:27.880Z,96.40
2019-03-06T22:43:58.241Z,96.30
2019-03-06T22:46:29.825Z,96.30
2019-03-06T22:49:00.197Z,96.30
2019-03-06T22:51:30.536Z,96.30
2019-03-06T22:54:01.088Z,96.20
2019-03-06T22:56:31.605Z,96.20
2019-03-06T22:59:02.058Z,96.30
2019-03-06T23:01:39.873Z,96.40
2019-03-06T23:04:10.273Z,96.40
2019-03-06T23:06:42.956Z,96.40
2019-03-06T23:09:13.693Z,96.50
2019-03-06T23:11:44.271Z,96.60
2019-03-06T23:14:14.618Z,96.60
2019-03-06T23:16:44.969Z,96.70
2019-03-06T23:19:15.358Z,96.80
2019-03-06T23:21:45.670Z,96.90
2019-03-06T23:24:16.565Z,96.90
2019-03-06T23:28:12.561Z,97.00
2019-03-06T23:30:42.879Z,97.00
2019-03-06T23:33:13.175Z,97.00
2019-03-06T23:35:43.482Z,97.10
2019-03-06T23:38:13.789Z,97.10
2019-03-06T23:40:44.125Z,97.10
2019-03-06T23:43:14.567Z,97.10
2019-03-06T23:45:44.973Z,97.20
2019-03-06T23:48:15.302Z,97.20
2019-03-06T23:50:46.159Z,97.70
2019-03-06T23:53:18.569Z,97.70
2019-03-06T23:55:48.901Z,97.60
2019-03-06T23:58:19.203Z,98.00
